Time;durP1;ratioP1;P1;durP2;ratioP2;P2;SDS_P1;SDS_P2;PMS_P1;PMS_P2;Temp;Humidity;BMP_temperature;BMP_pressure;BME280_temperature;BME280_humidity;BME280_pressure;Samples;Min_cycle;Max_cycle;Signal;HPM_P1;HPM_P2
2023/10/22 00:01:47;;;;;;;3.92;0.55;;;14.10;99.90;;;;;;5086684;28;20043;-79
2023/10/22 00:04:12;;;;;;;3.93;0.67;;;14.00;99.90;;;;;;5076013;28;20028;-77
2023/10/22 00:06:42;;;;;;;8.70;0.95;;;14.00;99.90;;;;;;5071047;28;20034;-76
2023/10/22 00:09:08;;;;;;;3.47;0.90;;;14.00;99.90;;;;;;5080861;28;20049;-79
2023/10/22 00:11:33;;;;;;;4.43;0.50;;;13.90;99.90;;;;;;5073600;28;20169;-78
2023/10/22 00:13:59;;;;;;;2.00;0.67;;;13.90;99.90;;;;;;5069667;28;20193;-77
2023/10/22 00:16:27;;;;;;;3.87;0.80;;;13.80;99.90;;;;;;5063475;28;20040;-79
2023/10/22 00:18:53;;;;;;;3.87;0.90;;;13.90;99.90;;;;;;5074773;28;20048;-77
2023/10/22 00:21:19;;;;;;;7.03;0.90;;;13.80;99.90;;;;;;5065511;28;20036;-77
2023/10/22 00:23:44;;;;;;;2.10;0.68;;;13.90;99.90;;;;;;5138611;22;20032;-78
2023/10/22 00:26:14;;;;;;;5.43;0.63;;;13.80;99.90;;;;;;5025086;28;20048;-77
2023/10/22 00:28:39;;;;;;;2.00;0.60;;;13.80;99.90;;;;;;5008476;28;20038;-77
2023/10/22 00:31:05;;;;;;;5.25;1.05;;;13.80;99.90;;;;;;5011282;28;20057;-79
2023/10/22 00:33:31;;;;;;;3.15;0.75;;;13.80;99.90;;;;;;5009471;28;20026;-80
2023/10/22 00:35:58;;;;;;;3.60;0.68;;;13.70;99.90;;;;;;5014433;28;20034;-77
2023/10/22 00:38:35;;;;;;;4.70;0.70;;;13.70;99.90;;;;;;5014881;28;20026;-77
2023/10/22 00:41:03;;;;;;;6.93;1.10;;;13.70;99.90;;;;;;5026111;28;20049;-78
2023/10/22 00:43:31;;;;;;;2.17;0.57;;;13.80;99.90;;;;;;5021362;28;20121;-78
2023/10/22 00:46:09;;;;;;;3.33;0.60;;;13.70;99.90;;;;;;5032104;28;20014;-76
2023/10/22 00:48:35;;;;;;;7.35;1.10;;;13.70;99.90;;;;;;5029727;28;20037;-77
2023/10/22 00:51:06;;;;;;;10.23;1.10;;;13.70;99.90;;;;;;5032810;28;20049;-77
2023/10/22 00:53:34;;;;;;;5.18;0.70;;;13.60;99.90;;;;;;5033498;28;20310;-78
2023/10/22 00:56:05;;;;;;;4.82;0.98;;;13.70;99.90;;;;;;5013487;28;20041;-78
2023/10/22 00:58:34;;;;;;;5.27;1.17;;;13.60;99.90;;;;;;5013304;28;20041;-78
2023/10/22 01:01:08;;;;;;;5.53;0.95;;;13.70;99.90;;;;;;5015250;28;20034;-76
2023/10/22 01:03:40;;;;;;;3.92;0.43;;;13.60;99.90;;;;;;5017947;28;20041;-76
2023/10/22 01:06:06;;;;;;;3.30;0.60;;;13.60;99.90;;;;;;5017014;28;20025;-78
2023/10/22 01:08:35;;;;;;;5.88;0.68;;;13.60;99.90;;;;;;5030995;28;20047;-77
2023/10/22 01:11:11;;;;;;;7.18;0.82;;;13.60;99.90;;;;;;5033994;28;20017;-76
2023/10/22 01:13:38;;;;;;;2.37;0.53;;;13.60;99.90;;;;;;5029984;28;20022;-78
2023/10/22 01:16:09;;;;;;;5.05;0.80;;;13.60;99.90;;;;;;5006988;28;20423;-75
2023/10/22 01:18:53;;;;;;;3.60;0.57;;;13.60;99.90;;;;;;5028660;28;20037;-77
2023/10/22 01:21:25;;;;;;;9.07;0.57;;;13.60;99.90;;;;;;5034166;28;20025;-74
2023/10/22 01:23:50;;;;;;;4.60;0.75;;;13.60;99.90;;;;;;5030888;28;20056;-75
2023/10/22 01:26:38;;;;;;;7.10;1.13;;;13.60;99.90;;;;;;5034262;28;20018;-75
2023/10/22 01:29:07;;;;;;;8.45;0.77;;;13.50;99.90;;;;;;5018566;28;20038;-76
2023/10/22 01:31:35;;;;;;;2.95;0.65;;;13.60;99.90;;;;;;5032816;28;20041;-76
2023/10/22 01:34:06;;;;;;;3.23;1.30;;;13.60;99.90;;;;;;5033294;28;20084;-76
2023/10/22 01:36:31;;;;;;;4.30;1.07;;;13.60;99.90;;;;;;5034424;28;20026;-75
2023/10/22 01:38:59;;;;;;;5.90;0.70;;;13.60;99.90;;;;;;5018954;28;20022;-75
2023/10/22 01:41:34;;;;;;;2.53;0.40;;;13.60;99.90;;;;;;5017086;28;20041;-75
2023/10/22 01:44:02;;;;;;;4.33;0.60;;;13.50;99.90;;;;;;5015289;28;20041;-75
2023/10/22 01:46:28;;;;;;;3.67;0.63;;;13.50;99.90;;;;;;5034697;28;20022;-75
2023/10/22 01:49:01;;;;;;;3.57;0.50;;;13.50;99.90;;;;;;5035128;28;20091;-75
2023/10/22 01:51:33;;;;;;;6.43;0.80;;;13.50;99.90;;;;;;5034898;28;20025;-74
2023/10/22 01:54:01;;;;;;;2.97;0.60;;;13.50;99.90;;;;;;5014434;28;20136;-74
2023/10/22 01:56:27;;;;;;;4.97;0.93;;;13.50;99.90;;;;;;5019921;28;20284;-75
2023/10/22 01:58:55;;;;;;;5.20;0.83;;;13.40;99.90;;;;;;5019475;28;20040;-76
2023/10/22 02:01:25;;;;;;;4.90;1.10;;;13.40;99.90;;;;;;5033358;28;20016;-74
2023/10/22 02:03:57;;;;;;;3.30;0.70;;;13.40;99.90;;;;;;5033907;28;20037;-75
2023/10/22 02:06:25;;;;;;;3.85;0.63;;;13.30;99.90;;;;;;5035495;28;20022;-76
2023/10/22 02:08:53;;;;;;;2.87;0.90;;;13.40;99.90;;;;;;5018031;28;20026;-74
2023/10/22 02:11:24;;;;;;;2.83;0.60;;;13.30;99.90;;;;;;5015257;28;20034;-74
2023/10/22 02:13:50;;;;;;;2.20;0.67;;;13.30;99.90;;;;;;5036172;28;20100;-74
2023/10/22 02:16:23;;;;;;;2.17;0.70;;;13.30;99.90;;;;;;5019014;28;20262;-76
2023/10/22 02:18:53;;;;;;;3.97;0.57;;;13.30;99.90;;;;;;5017691;28;20045;-74
2023/10/22 02:21:38;;;;;;;2.03;0.50;;;13.30;99.90;;;;;;5019294;28;20082;-74
2023/10/22 02:24:14;;;;;;;2.67;0.60;;;13.30;99.90;;;;;;5034207;28;20041;-74
2023/10/22 02:26:42;;;;;;;3.67;0.60;;;13.20;99.90;;;;;;5034980;28;20044;-74
2023/10/22 02:29:08;;;;;;;2.47;0.63;;;13.20;99.90;;;;;;5036001;28;20027;-74
2023/10/22 02:31:34;;;;;;;3.93;0.93;;;13.20;99.90;;;;;;5017515;28;20014;-75
2023/10/22 02:34:09;;;;;;;4.30;0.40;;;13.20;99.90;;;;;;5035409;28;20037;-75
2023/10/22 02:36:35;;;;;;;1.63;0.47;;;13.20;99.90;;;;;;5032790;28;20081;-74
2023/10/22 02:39:04;;;;;;;3.00;0.67;;;13.20;99.90;;;;;;5018967;28;20032;-74
2023/10/22 02:41:30;;;;;;;3.37;1.23;;;13.20;99.90;;;;;;5034614;28;20022;-73
2023/10/22 02:43:57;;;;;;;3.63;0.80;;;13.20;99.90;;;;;;5029605;28;20041;-75
2023/10/22 02:46:25;;;;;;;3.90;0.67;;;13.20;99.90;;;;;;5030082;28;20022;-74
2023/10/22 02:48:51;;;;;;;4.57;0.60;;;13.20;99.90;;;;;;5026686;28;20041;-75
2023/10/22 02:51:17;;;;;;;3.83;0.50;;;13.20;99.90;;;;;;5026927;28;20093;-75
2023/10/22 02:53:45;;;;;;;3.23;0.40;;;13.30;99.90;;;;;;5033321;28;20032;-74
2023/10/22 02:56:15;;;;;;;2.00;0.60;;;13.20;99.90;;;;;;5034264;28;20038;-74
2023/10/22 02:58:41;;;;;;;4.67;0.93;;;13.20;99.90;;;;;;5034889;28;21104;-74
2023/10/22 03:01:08;;;;;;;3.53;0.50;;;13.20;99.90;;;;;;5031293;28;20085;-75
2023/10/22 03:03:42;;;;;;;2.97;0.60;;;13.20;99.90;;;;;;5033681;28;20026;-74
2023/10/22 03:06:12;;;;;;;1.23;0.30;;;13.20;99.90;;;;;;5034622;28;20030;-74
2023/10/22 03:08:41;;;;;;;2.10;0.63;;;13.10;99.90;;;;;;5017704;28;20018;-74
2023/10/22 03:11:17;;;;;;;3.03;0.37;;;13.10;99.90;;;;;;5017220;28;20022;-74
2023/10/22 03:13:43;;;;;;;1.40;0.30;;;13.10;99.90;;;;;;5035336;28;20018;-75
2023/10/22 03:16:11;;;;;;;1.70;0.50;;;13.10;99.90;;;;;;5017440;28;20045;-74
2023/10/22 03:18:43;;;;;;;1.63;0.50;;;13.10;99.90;;;;;;5035198;28;20041;-74
2023/10/22 03:21:11;;;;;;;1.25;0.35;;;13.10;99.90;;;;;;5034525;28;20018;-74
2023/10/22 03:23:41;;;;;;;1.73;0.20;;;13.10;99.90;;;;;;5033674;28;20033;-73
2023/10/22 03:26:13;;;;;;;0.50;0.20;;;13.10;99.90;;;;;;5033905;28;20049;-75
2023/10/22 03:28:39;;;;;;;2.30;0.10;;;13.10;99.90;;;;;;5035016;28;20053;-74
2023/10/22 03:31:05;;;;;;;2.33;0.30;;;13.10;99.90;;;;;;5030582;28;20120;-74
2023/10/22 03:33:34;;;;;;;1.53;0.20;;;13.20;99.90;;;;;;5015398;28;20082;-74
2023/10/22 03:36:00;;;;;;;1.73;0.40;;;13.20;99.90;;;;;;5017361;28;20049;-74
2023/10/22 03:38:26;;;;;;;1.60;0.63;;;13.20;99.90;;;;;;5013320;28;20010;-74
2023/10/22 03:41:05;;;;;;;1.03;0.20;;;13.20;99.90;;;;;;5071455;22;20052;-74
2023/10/22 03:43:34;;;;;;;1.07;0.20;;;13.20;99.90;;;;;;5057619;28;20047;-74
2023/10/22 03:46:02;;;;;;;0.43;0.13;;;13.20;99.90;;;;;;5041952;28;20209;-75
2023/10/22 03:48:29;;;;;;;1.50;0.13;;;13.20;99.90;;;;;;5057481;28;20032;-75
2023/10/22 03:50:55;;;;;;;1.63;0.53;;;13.20;99.90;;;;;;5039678;28;20036;-74
2023/10/22 03:53:24;;;;;;;0.50;0.17;;;13.20;99.90;;;;;;5056418;28;20042;-75
2023/10/22 03:55:52;;;;;;;4.30;0.33;;;13.20;99.90;;;;;;5059329;28;20036;-74
2023/10/22 03:58:18;;;;;;;0.40;0.20;;;13.10;99.90;;;;;;5056797;28;20037;-76
2023/10/22 04:00:44;;;;;;;0.90;0.10;;;13.10;99.90;;;;;;5056112;28;20045;-75
2023/10/22 04:03:17;;;;;;;1.73;0.53;;;13.10;99.90;;;;;;5043524;28;20273;-74
2023/10/22 04:05:43;;;;;;;3.93;0.10;;;13.10;99.90;;;;;;5037353;28;20029;-75
2023/10/22 04:08:16;;;;;;;1.33;0.23;;;13.20;99.90;;;;;;5053140;28;20021;-76
2023/10/22 04:10:46;;;;;;;0.33;0.10;;;13.10;99.90;;;;;;5055572;28;20092;-75
2023/10/22 04:13:11;;;;;;;3.90;0.40;;;13.10;99.90;;;;;;5058761;28;20305;-75
2023/10/22 04:15:39;;;;;;;0.20;0.20;;;13.10;99.90;;;;;;5042120;28;20028;-75
2023/10/22 04:18:05;;;;;;;0.90;0.20;;;13.10;99.90;;;;;;5056689;28;20026;-74
2023/10/22 04:20:33;;;;;;;0.87;0.30;;;13.10;99.90;;;;;;5035137;28;20036;-75
2023/10/22 04:22:59;;;;;;;0.30;0.10;;;13.10;99.90;;;;;;5057424;28;20013;-74
2023/10/22 04:25:28;;;;;;;0.10;0.10;;;13.10;99.90;;;;;;5052236;28;20033;-74
2023/10/22 04:27:57;;;;;;;0.33;0.20;;;13.10;99.90;;;;;;5051548;28;20022;-74
2023/10/22 04:30:23;;;;;;;1.30;0.10;;;13.20;99.90;;;;;;5041046;28;20022;-74
2023/10/22 04:32:49;;;;;;;0.33;0.20;;;13.10;99.90;;;;;;5056496;28;20026;-75
2023/10/22 04:35:18;;;;;;;0.50;0.10;;;13.10;99.90;;;;;;5040533;28;20085;-74
2023/10/22 04:37:53;;;;;;;0.27;0.13;;;13.10;99.90;;;;;;5039855;28;20025;-74
2023/10/22 04:40:39;;;;;;;0.20;0.10;;;13.00;99.90;;;;;;5058505;28;20030;-74
2023/10/22 04:43:07;;;;;;;0.20;0.13;;;13.10;99.90;;;;;;5060543;28;20009;-76
2023/10/22 04:45:35;;;;;;;1.10;0.20;;;12.90;99.90;;;;;;5055504;28;20026;-74
2023/10/22 04:48:01;;;;;;;0.23;0.17;;;12.90;99.90;;;;;;5058747;28;20063;-74
2023/10/22 04:50:29;;;;;;;0.70;0.10;;;13.00;99.90;;;;;;5053194;28;20018;-74
2023/10/22 04:52:57;;;;;;;0.30;0.17;;;13.10;99.90;;;;;;5048263;28;20020;-75
2023/10/22 04:55:23;;;;;;;0.33;0.10;;;13.00;99.90;;;;;;5040796;28;20029;-75
2023/10/22 04:57:51;;;;;;;0.17;0.07;;;13.00;99.90;;;;;;5051502;28;20024;-74
2023/10/22 05:00:27;;;;;;;0.40;0.13;;;12.90;99.90;;;;;;5045111;28;20039;-75
2023/10/22 05:02:59;;;;;;;1.03;0.20;;;13.00;99.90;;;;;;5058309;28;20013;-75
2023/10/22 05:05:25;;;;;;;1.27;0.20;;;13.00;99.90;;;;;;5036984;28;20060;-74
2023/10/22 05:07:51;;;;;;;0.33;0.10;;;12.90;99.90;;;;;;5041297;28;20089;-75
2023/10/22 05:10:25;;;;;;;0.83;0.43;;;13.00;99.90;;;;;;5042652;28;20025;-74
2023/10/22 05:12:50;;;;;;;0.63;0.17;;;12.80;99.90;;;;;;5040838;28;20101;-75
2023/10/22 05:15:24;;;;;;;0.53;0.10;;;13.00;99.90;;;;;;5048116;28;20032;-75
2023/10/22 05:17:53;;;;;;;0.20;0.10;;;13.00;99.90;;;;;;5053887;28;20033;-74
2023/10/22 05:20:18;;;;;;;0.83;0.10;;;13.00;99.90;;;;;;5040466;28;20021;-75
2023/10/22 05:22:49;;;;;;;0.67;0.20;;;13.00;99.90;;;;;;5040975;28;20020;-75
2023/10/22 05:25:20;;;;;;;0.43;0.20;;;12.90;99.90;;;;;;5069006;28;20032;-74
2023/10/22 05:27:49;;;;;;;0.03;0.03;;;13.00;99.90;;;;;;5038795;28;20024;-75
2023/10/22 05:30:17;;;;;;;0.30;0.20;;;13.00;99.90;;;;;;5068339;28;20021;-76
2023/10/22 05:32:43;;;;;;;0.90;0.20;;;13.00;99.90;;;;;;5044189;28;20009;-74
2023/10/22 05:35:08;;;;;;;0.53;0.20;;;13.00;99.90;;;;;;5034964;28;20032;-77
2023/10/22 05:37:39;;;;;;;0.20;0.10;;;13.00;99.90;;;;;;5057407;28;20014;-74
2023/10/22 05:40:06;;;;;;;0.13;0.13;;;13.00;99.90;;;;;;5040954;28;20224;-74
2023/10/22 05:42:36;;;;;;;0.40;0.10;;;13.10;99.90;;;;;;5071463;28;20021;-78
2023/10/22 05:45:04;;;;;;;0.20;0.10;;;13.10;99.90;;;;;;5060691;28;20036;-76
2023/10/22 05:47:33;;;;;;;0.50;0.20;;;13.00;99.90;;;;;;5046822;28;20021;-74
2023/10/22 05:50:02;;;;;;;0.30;0.10;;;13.00;99.90;;;;;;5038029;28;20014;-75
2023/10/22 05:52:30;;;;;;;0.57;0.10;;;13.00;99.90;;;;;;5051926;28;20010;-74
2023/10/22 05:54:55;;;;;;;0.20;0.10;;;13.00;99.90;;;;;;5058526;28;20009;-74
2023/10/22 05:57:23;;;;;;;0.70;0.10;;;13.10;99.90;;;;;;5040412;28;20060;-75
2023/10/22 05:59:53;;;;;;;0.20;0.10;;;13.10;99.90;;;;;;5049015;28;20018;-73
2023/10/22 06:02:19;;;;;;;0.10;0.10;;;13.00;99.90;;;;;;5041862;28;20029;-78
2023/10/22 06:04:47;;;;;;;1.33;0.20;;;13.00;99.90;;;;;;5041109;28;20120;-75
2023/10/22 06:07:15;;;;;;;1.87;0.10;;;12.80;99.90;;;;;;5075005;28;20032;-74
2023/10/22 06:09:40;;;;;;;0.43;0.10;;;12.40;99.90;;;;;;5051574;28;20055;-75
2023/10/22 06:12:08;;;;;;;1.30;0.30;;;12.00;99.90;;;;;;5058058;28;20017;-75
2023/10/22 06:14:35;;;;;;;2.53;0.33;;;11.80;99.90;;;;;;5050580;28;20025;-75
2023/10/22 06:17:04;;;;;;;0.77;0.30;;;11.60;99.90;;;;;;5052013;28;20018;-75
2023/10/22 06:19:30;;;;;;;2.10;0.20;;;11.60;99.90;;;;;;5027422;28;20026;-75
2023/10/22 06:21:56;;;;;;;1.87;0.23;;;11.50;99.90;;;;;;5057747;28;20017;-74
2023/10/22 06:24:22;;;;;;;1.70;0.33;;;11.40;99.90;;;;;;5054694;28;20060;-78
2023/10/22 06:26:50;;;;;;;0.80;0.30;;;11.40;99.90;;;;;;5035997;28;20010;-75
2023/10/22 06:29:18;;;;;;;0.90;0.30;;;11.30;99.90;;;;;;5056468;28;20014;-76
2023/10/22 06:31:44;;;;;;;1.47;0.37;;;11.30;99.90;;;;;;5040193;28;20034;-75
2023/10/22 06:34:12;;;;;;;3.50;0.30;;;11.20;99.90;;;;;;5057446;28;20018;-76
2023/10/22 06:36:38;;;;;;;0.70;0.27;;;11.20;99.90;;;;;;5033602;28;20073;-74
2023/10/22 06:39:04;;;;;;;1.47;0.40;;;11.20;99.90;;;;;;5033934;28;20064;-74
2023/10/22 06:41:32;;;;;;;2.73;0.40;;;11.20;99.90;;;;;;5052125;28;20114;-74
2023/10/22 06:43:58;;;;;;;3.57;0.43;;;11.20;99.90;;;;;;5049379;28;20050;-75
2023/10/22 06:46:24;;;;;;;5.13;0.70;;;11.20;99.90;;;;;;5060881;28;20068;-75
2023/10/22 06:48:51;;;;;;;2.53;0.50;;;11.30;99.90;;;;;;5032642;28;20040;-75
2023/10/22 06:51:17;;;;;;;2.03;0.40;;;11.20;99.90;;;;;;5047564;28;20025;-77
2023/10/22 06:53:50;;;;;;;2.40;0.57;;;11.30;99.90;;;;;;5065390;28;20017;-75
2023/10/22 06:56:16;;;;;;;4.10;0.60;;;11.20;99.90;;;;;;5053598;28;20036;-75
2023/10/22 06:58:42;;;;;;;0.93;0.40;;;11.30;99.90;;;;;;5055353;28;20028;-75
2023/10/22 07:01:14;;;;;;;2.00;0.50;;;11.40;99.90;;;;;;5057874;28;20861;-75
2023/10/22 07:03:45;;;;;;;1.73;0.52;;;11.40;99.90;;;;;;5057074;28;20014;-75
2023/10/22 07:06:14;;;;;;;7.37;0.67;;;11.40;99.90;;;;;;5049010;28;20026;-77
2023/10/22 07:08:42;;;;;;;3.60;0.77;;;11.50;99.90;;;;;;5066098;28;20040;-74
2023/10/22 07:11:08;;;;;;;2.83;0.63;;;11.60;99.90;;;;;;5057497;28;20024;-75
2023/10/22 07:13:34;;;;;;;3.00;0.80;;;11.50;99.90;;;;;;5054995;28;20018;-74
2023/10/22 07:16:05;;;;;;;1.47;0.70;;;11.50;99.90;;;;;;5066457;28;20006;-77
2023/10/22 07:18:31;;;;;;;1.10;0.50;;;11.40;99.90;;;;;;5040396;28;20042;-77
2023/10/22 07:20:56;;;;;;;2.07;0.67;;;11.50;99.90;;;;;;5044072;28;20013;-77
2023/10/22 07:23:24;;;;;;;1.50;0.60;;;11.40;99.90;;;;;;5040410;28;20014;-74
2023/10/22 07:25:58;;;;;;;3.03;1.10;;;11.50;99.90;;;;;;5053050;28;20021;-74
2023/10/22 07:28:29;;;;;;;2.47;0.80;;;11.40;99.90;;;;;;5059729;28;20044;-75
2023/10/22 07:30:58;;;;;;;1.53;0.70;;;11.40;99.90;;;;;;5044047;28;20109;-76
2023/10/22 07:33:26;;;;;;;2.30;0.80;;;11.30;99.90;;;;;;5045805;28;20044;-75
2023/10/22 07:35:53;;;;;;;1.63;0.50;;;11.50;99.90;;;;;;5040032;28;20036;-77
2023/10/22 07:38:19;;;;;;;1.37;0.50;;;11.50;99.90;;;;;;5047000;28;20048;-75
2023/10/22 07:40:50;;;;;;;1.50;0.70;;;11.40;99.90;;;;;;5060250;28;20021;-79
2023/10/22 07:43:19;;;;;;;2.27;0.60;;;11.40;99.90;;;;;;5043623;28;20040;-81
2023/10/22 07:45:45;;;;;;;4.03;0.70;;;11.40;99.90;;;;;;5056820;28;20032;-76
2023/10/22 07:48:11;;;;;;;2.00;0.70;;;11.40;99.90;;;;;;5056157;28;20033;-76
2023/10/22 07:50:36;;;;;;;2.07;0.50;;;11.40;99.90;;;;;;5053819;28;20018;-78
2023/10/22 07:53:02;;;;;;;2.40;0.80;;;11.40;99.90;;;;;;5043098;28;20021;-78
2023/10/22 07:55:28;;;;;;;2.77;0.87;;;11.50;99.90;;;;;;5070843;28;20028;-77
2023/10/22 07:57:54;;;;;;;1.37;0.63;;;11.40;99.90;;;;;;5074058;28;20017;-77
2023/10/22 08:00:19;;;;;;;1.80;0.70;;;11.40;99.90;;;;;;5051416;28;20018;-78
2023/10/22 08:02:45;;;;;;;5.10;1.23;;;11.40;99.90;;;;;;5042459;28;20084;-77
2023/10/22 08:05:29;;;;;;;10.93;2.17;;;11.50;99.90;;;;;;5053866;28;20064;-77
2023/10/22 08:07:54;;;;;;;8.67;2.27;;;11.50;99.90;;;;;;5062842;28;20009;-78
2023/10/22 08:10:26;;;;;;;2.77;1.47;;;11.50;99.90;;;;;;5053770;28;20086;-78
2023/10/22 08:13:02;;;;;;;3.93;1.07;;;11.40;99.90;;;;;;5052826;28;20048;-77
2023/10/22 08:16:17;;;;;;;;;;;;;;;;;;;;;
2023/10/22 08:19:05;;;;;;;2.60;0.90;;;11.50;99.90;;;;;;5056394;28;20017;-78
2023/10/22 08:21:43;;;;;;;2.10;0.93;;;11.60;99.90;;;;;;5054901;28;20029;-77
2023/10/22 08:24:14;;;;;;;2.23;0.60;;;11.50;99.90;;;;;;5053440;28;20071;-77
2023/10/22 08:26:39;;;;;;;3.10;1.10;;;11.60;99.90;;;;;;5057716;28;20040;-78
2023/10/22 08:29:05;;;;;;;2.67;1.33;;;11.60;99.90;;;;;;5055289;28;20049;-75
2023/10/22 08:31:33;;;;;;;5.07;1.53;;;11.50;99.90;;;;;;5071022;28;20029;-77
2023/10/22 08:34:04;;;;;;;3.73;1.10;;;11.60;99.90;;;;;;5059752;28;20041;-77
2023/10/22 08:36:40;;;;;;;;;;;;;;;;;;;;;
2023/10/22 08:39:10;;;;;;;3.27;1.10;;;11.70;99.90;;;;;;5059519;28;20024;-77
2023/10/22 08:42:11;;;;;;;5.70;1.50;;;11.60;99.90;;;;;;5065472;28;20013;-76
2023/10/22 08:44:45;;;;;;;6.03;1.63;;;11.60;99.90;;;;;;5035979;28;20053;-76
2023/10/22 08:47:13;;;;;;;1.27;0.70;;;11.70;99.90;;;;;;5034790;28;20053;-75
2023/10/22 08:49:40;;;;;;;1.90;1.20;;;11.70;99.90;;;;;;5054207;28;20036;-76
2023/10/22 08:52:13;;;;;;;2.10;1.00;;;11.80;99.90;;;;;;5033719;28;20044;-75
2023/10/22 08:54:39;;;;;;;2.03;0.90;;;11.80;99.90;;;;;;5053914;28;20022;-75
2023/10/22 08:57:30;;;;;;;6.40;1.03;;;11.90;99.90;;;;;;5052279;28;20021;-77
2023/10/22 09:00:45;;;;;;;;;;;;;;;;;;;;;
2023/10/22 09:03:31;;;;;;;4.57;0.97;;;11.90;99.90;;;;;;5054144;28;20125;-76
2023/10/22 09:06:03;;;;;;;2.50;1.30;;;11.80;99.90;;;;;;5041180;28;20063;-76
2023/10/22 09:09:07;;;;;;;1.93;1.50;;;11.60;99.90;;;;;;5052067;28;20022;-77
2023/10/22 09:11:35;;;;;;;1.10;0.80;;;11.70;99.90;;;;;;5052709;28;20136;-77
2023/10/22 09:14:23;;;;;;;4.53;1.13;;;11.70;99.90;;;;;;5052816;28;20043;-77
2023/10/22 09:17:30;;;;;;;;;;;;;;;;;;;;;
2023/10/22 09:20:34;;;;;;;2.17;0.90;;;11.80;99.90;;;;;;5053254;28;20018;-77
2023/10/22 09:23:15;;;;;;;3.03;1.30;;;11.80;99.90;;;;;;5033459;28;20143;-78
2023/10/22 09:25:41;;;;;;;2.00;1.47;;;11.80;99.90;;;;;;5048921;28;20086;-76
2023/10/22 09:28:22;;;;;;;4.07;1.23;;;11.60;99.90;;;;;;5034859;28;20258;-77
2023/10/22 09:30:54;;;;;;;2.10;0.87;;;11.90;99.90;;;;;;5052776;28;20018;-77
2023/10/22 09:33:32;;;;;;;3.08;1.30;;;11.80;99.90;;;;;;5051744;28;20047;-77
2023/10/22 09:36:12;;;;;;;13.33;1.20;;;11.80;99.90;;;;;;5052667;28;20030;-76
2023/10/22 09:38:59;;;;;;;4.10;2.17;;;11.90;99.90;;;;;;5052269;28;20060;-76
2023/10/22 09:41:30;;;;;;;3.67;1.37;;;11.80;99.90;;;;;;5052339;28;21125;-77
2023/10/22 09:44:07;;;;;;;2.87;1.10;;;11.90;99.90;;;;;;5051741;28;20018;-76
2023/10/22 09:46:39;;;;;;;4.10;0.97;;;12.00;99.90;;;;;;5035773;28;20268;-77
2023/10/22 09:49:06;;;;;;;2.20;1.20;;;12.00;99.90;;;;;;5034852;28;20022;-76
2023/10/22 09:51:50;;;;;;;4.37;1.33;;;12.00;99.90;;;;;;5038629;28;20021;-77
2023/10/22 09:54:52;;;;;;;;;;;;;;;;;;;;;
2023/10/22 09:57:28;;;;;;;1.67;0.98;;;12.00;99.90;;;;;;5051956;28;20048;-77
2023/10/22 10:00:10;;;;;;;2.70;1.40;;;12.10;99.90;;;;;;5049304;28;20030;-77
2023/10/22 10:02:42;;;;;;;1.13;0.90;;;12.00;99.90;;;;;;5051337;28;20014;-77
2023/10/22 10:05:14;;;;;;;1.47;0.80;;;12.10;99.90;;;;;;5037735;28;20097;-77
2023/10/22 10:07:40;;;;;;;3.43;0.70;;;12.10;99.90;;;;;;5052038;28;20036;-77
2023/10/22 10:10:11;;;;;;;3.77;0.90;;;12.00;99.90;;;;;;5049949;28;20018;-77
2023/10/22 10:12:40;;;;;;;3.00;1.27;;;12.00;99.90;;;;;;5034147;28;20029;-77
2023/10/22 10:15:36;;;;;;;2.23;0.70;;;12.00;99.90;;;;;;5050325;28;20029;-77
2023/10/22 10:18:07;;;;;;;1.80;0.83;;;12.00;99.90;;;;;;5031858;28;20009;-76
2023/10/22 10:20:52;;;;;;;2.23;1.07;;;12.00;99.90;;;;;;5052382;28;20166;-77
2023/10/22 10:23:28;;;;;;;1.20;0.80;;;11.80;99.90;;;;;;5033592;28;20021;-77
2023/10/22 10:26:33;;;;;;;3.23;1.00;;;11.80;99.90;;;;;;5052174;28;20077;-77
2023/10/22 10:29:05;;;;;;;2.27;0.90;;;11.80;99.90;;;;;;5034008;28;20029;-77
2023/10/22 10:31:33;;;;;;;1.93;0.80;;;11.80;99.90;;;;;;5052519;28;20045;-76
2023/10/22 10:34:02;;;;;;;5.10;1.00;;;11.90;99.90;;;;;;5050054;28;20053;-78
2023/10/22 10:36:31;;;;;;;5.70;1.03;;;11.90;99.90;;;;;;5048952;28;20021;-77
2023/10/22 10:39:35;;;;;;;4.20;1.37;;;12.00;99.90;;;;;;5051203;28;20025;-77
2023/10/22 10:42:00;;;;;;;3.93;0.90;;;11.90;99.90;;;;;;5052799;28;20017;-76
2023/10/22 10:44:31;;;;;;;0.17;0.10;;;11.90;99.90;;;;;;5039948;28;20090;-76
2023/10/22 10:47:28;;;;;;;0.43;0.23;;;12.00;99.90;;;;;;5036028;28;20032;-80
2023/10/22 10:49:59;;;;;;;1.63;0.80;;;12.00;99.90;;;;;;5057303;28;20014;-76
2023/10/22 10:52:27;;;;;;;2.83;1.00;;;12.10;99.90;;;;;;5056888;28;20036;-76
2023/10/22 10:55:29;;;;;;;4.07;1.10;;;12.10;99.90;;;;;;5040218;28;20089;-78
2023/10/22 10:57:55;;;;;;;2.72;0.82;;;12.00;99.90;;;;;;5037816;28;20052;-77
2023/10/22 11:00:38;;;;;;;3.97;1.20;;;11.80;99.90;;;;;;5048670;28;20045;-77
2023/10/22 11:03:10;;;;;;;4.00;1.03;;;11.90;99.90;;;;;;5042077;28;20017;-77
2023/10/22 11:08:15;;;;;;;1.67;1.10;;;11.90;99.90;;;;;;5055103;28;20092;-77
2023/10/22 11:10:45;;;;;;;7.77;1.87;;;11.90;99.90;;;;;;5113129;23;20049;-77
2023/10/22 11:13:11;;;;;;;6.93;1.40;;;12.10;99.90;;;;;;5057198;28;20037;-79
2023/10/22 11:15:42;;;;;;;4.53;1.40;;;12.00;99.90;;;;;;5061157;28;20017;-76
2023/10/22 11:18:12;;;;;;;3.70;1.23;;;12.00;99.90;;;;;;5097590;23;20081;-76
2023/10/22 11:20:41;;;;;;;3.50;1.43;;;12.00;99.90;;;;;;5061075;28;20044;-77
2023/10/22 11:23:21;;;;;;;3.93;1.60;;;12.00;99.90;;;;;;5060244;28;20013;-77
2023/10/22 11:25:47;;;;;;;5.43;1.60;;;11.90;99.90;;;;;;5068564;28;20041;-76
2023/10/22 11:28:13;;;;;;;4.27;1.40;;;12.00;99.90;;;;;;5060818;28;20033;-77
2023/10/22 11:30:41;;;;;;;4.50;1.20;;;12.10;99.90;;;;;;5056756;28;20013;-77
2023/10/22 11:33:26;;;;;;;1.73;1.10;;;12.00;99.90;;;;;;5056407;28;20032;-77
2023/10/22 11:35:55;;;;;;;6.03;1.20;;;12.10;99.90;;;;;;5060064;28;20034;-77
2023/10/22 11:38:23;;;;;;;6.67;1.20;;;12.00;99.90;;;;;;5050764;28;20033;-76
2023/10/22 11:41:01;;;;;;;4.07;1.20;;;12.10;99.90;;;;;;5074982;28;20041;-78
2023/10/22 11:43:33;;;;;;;2.00;1.03;;;12.10;99.90;;;;;;5051066;28;20037;-77
2023/10/22 11:46:00;;;;;;;4.95;1.10;;;12.20;99.90;;;;;;5060564;28;20030;-76
2023/10/22 11:48:29;;;;;;;5.70;1.87;;;12.20;99.90;;;;;;5052635;28;20013;-77
2023/10/22 11:51:05;;;;;;;3.77;1.33;;;12.30;99.90;;;;;;5077049;28;20010;-77
2023/10/22 11:53:45;;;;;;;4.03;1.20;;;12.30;99.90;;;;;;5076914;28;20081;-76
2023/10/22 11:56:13;;;;;;;3.83;1.17;;;12.40;99.90;;;;;;5060132;28;20018;-77
2023/10/22 11:58:44;;;;;;;2.63;1.20;;;12.40;99.90;;;;;;5059900;28;20016;-78
2023/10/22 12:01:12;;;;;;;3.87;0.97;;;12.60;99.90;;;;;;5057301;28;20014;-76
2023/10/22 12:03:40;;;;;;;3.60;1.00;;;12.60;99.90;;;;;;5058944;28;20009;-75
2023/10/22 12:06:10;;;;;;;7.07;1.63;;;12.70;99.90;;;;;;5057720;28;20234;-77
2023/10/22 12:08:39;;;;;;;2.70;1.40;;;12.70;99.90;;;;;;5058825;28;20029;-77
2023/10/22 12:11:10;;;;;;;1.43;0.70;;;12.90;99.90;;;;;;5057381;28;20018;-76
2023/10/22 12:13:51;;;;;;;3.27;1.23;;;12.80;99.90;;;;;;5076554;28;20067;-76
2023/10/22 12:16:21;;;;;;;3.30;1.03;;;13.00;99.90;;;;;;5056501;28;20021;-78
2023/10/22 12:18:52;;;;;;;1.13;0.70;;;13.10;99.90;;;;;;5056955;28;20025;-77
2023/10/22 12:21:29;;;;;;;1.92;0.93;;;13.20;99.90;;;;;;5049959;28;20029;-77
2023/10/22 12:23:58;;;;;;;2.95;1.30;;;13.20;99.90;;;;;;5051123;28;20030;-77
2023/10/22 12:26:26;;;;;;;1.20;1.00;;;13.10;99.90;;;;;;5068082;28;20021;-77
2023/10/22 12:28:58;;;;;;;3.30;1.60;;;13.30;99.90;;;;;;5052189;28;20056;-76
2023/10/22 12:31:36;;;;;;;5.63;2.53;;;13.20;99.90;;;;;;5051073;28;20026;-76
2023/10/22 12:34:10;;;;;;;3.85;1.65;;;13.10;99.90;;;;;;5048800;28;20033;-78
2023/10/22 12:36:37;;;;;;;2.72;1.85;;;13.30;99.90;;;;;;5049394;28;20033;-78
2023/10/22 12:39:07;;;;;;;3.70;1.95;;;13.30;99.90;;;;;;5051104;28;20032;-77
2023/10/22 12:41:34;;;;;;;3.50;2.08;;;13.40;99.90;;;;;;5051516;28;20017;-78
2023/10/22 12:43:59;;;;;;;2.35;1.73;;;13.50;99.90;;;;;;5047343;28;20044;-78
2023/10/22 12:46:28;;;;;;;3.80;2.10;;;13.70;99.90;;;;;;5046287;28;20081;-77
2023/10/22 12:48:59;;;;;;;4.63;2.50;;;13.80;99.90;;;;;;5050643;28;20029;-77
2023/10/22 12:51:28;;;;;;;4.95;2.95;;;14.00;99.90;;;;;;5061002;28;20026;-77
2023/10/22 12:53:54;;;;;;;3.97;2.53;;;13.90;99.90;;;;;;5045030;28;20036;-77
2023/10/22 12:56:20;;;;;;;2.58;2.00;;;14.00;99.90;;;;;;5046728;28;20049;-77
2023/10/22 12:58:55;;;;;;;5.15;2.70;;;13.90;99.90;;;;;;5054408;28;20118;-77
2023/10/22 13:01:22;;;;;;;4.00;2.08;;;13.80;99.90;;;;;;5047461;28;20014;-76
2023/10/22 13:03:50;;;;;;;4.07;2.85;;;13.70;99.90;;;;;;5043540;28;20056;-77
2023/10/22 13:06:19;;;;;;;4.55;3.22;;;13.80;99.90;;;;;;5122947;23;20036;-77
2023/10/22 13:08:55;;;;;;;5.05;3.40;;;13.90;99.90;;;;;;5051123;28;20021;-77
2023/10/22 13:11:29;;;;;;;4.72;3.63;;;13.90;99.90;;;;;;5065781;28;20029;-77
2023/10/22 13:13:57;;;;;;;5.35;3.60;;;13.80;99.90;;;;;;5056742;28;20081;-76
2023/10/22 13:16:23;;;;;;;5.20;3.58;;;13.90;99.90;;;;;;5065311;28;20294;-77